sensor_id;sensor_type;location;lat;lon;timestamp;temperature;humidity
10433;DHT22;5263;48.680;9.004;2022-10-16T00:01:25;15.00;99.90
10433;DHT22;5263;48.680;9.004;2022-10-16T00:03:52;14.90;99.90
10433;DHT22;5263;48.680;9.004;2022-10-16T00:06:20;14.90;99.90
10433;DHT22;5263;48.680;9.004;2022-10-16T00:08:46;14.80;99.90
10433;DHT22;5263;48.680;9.004;2022-10-16T00:13:42;14.80;99.90
10433;DHT22;5263;48.680;9.004;2022-10-16T00:16:09;14.70;99.90
10433;DHT22;5263;48.680;9.004;2022-10-16T00:18:36;14.80;99.90
10433;DHT22;5263;48.680;9.004;2022-10-16T00:21:18;14.70;99.90
10433;DHT22;5263;48.680;9.004;2022-10-16T00:23:44;14.70;99.90
10433;DHT22;5263;48.680;9.004;2022-10-16T00:26:15;14.70;99.90
10433;DHT22;5263;48.680;9.004;2022-10-16T00:28:41;14.60;99.90
10433;DHT22;5263;48.680;9.004;2022-10-16T00:31:10;14.60;99.90
10433;DHT22;5263;48.680;9.004;2022-10-16T00:33:37;14.60;99.90
10433;DHT22;5263;48.680;9.004;2022-10-16T00:36:04;14.60;99.90
10433;DHT22;5263;48.680;9.004;2022-10-16T00:38:31;14.70;99.90
10433;DHT22;5263;48.680;9.004;2022-10-16T00:40:57;14.60;99.90
10433;DHT22;5263;48.680;9.004;2022-10-16T00:43:35;14.70;99.90
10433;DHT22;5263;48.680;9.004;2022-10-16T00:46:03;14.80;99.90
10433;DHT22;5263;48.680;9.004;2022-10-16T00:48:30;14.70;99.90
10433;DHT22;5263;48.680;9.004;2022-10-16T00:50:57;14.70;99.90
10433;DHT22;5263;48.680;9.004;2022-10-16T00:53:24;14.80;99.90
10433;DHT22;5263;48.680;9.004;2022-10-16T00:55:50;14.70;99.90
10433;DHT22;5263;48.680;9.004;2022-10-16T00:58:16;14.80;99.90
10433;DHT22;5263;48.680;9.004;2022-10-16T01:00:41;14.80;99.90
10433;DHT22;5263;48.680;9.004;2022-10-16T01:03:42;14.70;99.90
10433;DHT22;5263;48.680;9.004;2022-10-16T01:09:16;14.70;99.90
10433;DHT22;5263;48.680;9.004;2022-10-16T01:14:41;14.80;99.90
10433;DHT22;5263;48.680;9.004;2022-10-16T01:17:13;14.90;99.90
10433;DHT22;5263;48.680;9.004;2022-10-16T01:22:26;14.70;99.90
10433;DHT22;5263;48.680;9.004;2022-10-16T01:25:00;14.70;99.90
10433;DHT22;5263;48.680;9.004;2022-10-16T01:27:34;14.70;99.90
10433;DHT22;5263;48.680;9.004;2022-10-16T01:30:07;14.50;99.90
10433;DHT22;5263;48.680;9.004;2022-10-16T01:32:41;14.40;99.90
10433;DHT22;5263;48.680;9.004;2022-10-16T01:35:27;14.50;99.90
10433;DHT22;5263;48.680;9.004;2022-10-16T01:40:28;14.50;99.90
10433;DHT22;5263;48.680;9.004;2022-10-16T01:43:14;14.60;99.90
10433;DHT22;5263;48.680;9.004;2022-10-16T01:45:41;14.60;99.90
10433;DHT22;5263;48.680;9.004;2022-10-16T01:48:12;14.70;99.90
10433;DHT22;5263;48.680;9.004;2022-10-16T01:50:41;14.80;99.90
10433;DHT22;5263;48.680;9.004;2022-10-16T01:53:11;14.80;99.90
10433;DHT22;5263;48.680;9.004;2022-10-16T01:55:40;14.70;99.90
10433;DHT22;5263;48.680;9.004;2022-10-16T01:58:12;14.70;99.90
10433;DHT22;5263;48.680;9.004;2022-10-16T02:00:40;14.70;99.90
10433;DHT22;5263;48.680;9.004;2022-10-16T02:03:08;14.70;99.90
10433;DHT22;5263;48.680;9.004;2022-10-16T02:05:53;14.80;99.90
10433;DHT22;5263;48.680;9.004;2022-10-16T02:08:20;14.90;99.90
10433;DHT22;5263;48.680;9.004;2022-10-16T02:10:47;14.90;99.90
10433;DHT22;5263;48.680;9.004;2022-10-16T02:13:28;15.00;99.90
10433;DHT22;5263;48.680;9.004;2022-10-16T02:15:54;15.10;99.90
10433;DHT22;5263;48.680;9.004;2022-10-16T02:18:20;15.20;99.90
10433;DHT22;5263;48.680;9.004;2022-10-16T02:23:19;15.20;99.90
10433;DHT22;5263;48.680;9.004;2022-10-16T02:25:47;15.20;99.90
10433;DHT22;5263;48.680;9.004;2022-10-16T02:30:48;15.10;99.90
10433;DHT22;5263;48.680;9.004;2022-10-16T02:33:16;15.10;99.90
10433;DHT22;5263;48.680;9.004;2022-10-16T02:35:44;15.10;99.90
10433;DHT22;5263;48.680;9.004;2022-10-16T02:38:12;15.10;99.90
10433;DHT22;5263;48.680;9.004;2022-10-16T02:40:39;15.20;99.90
10433;DHT22;5263;48.680;9.004;2022-10-16T02:43:06;15.10;99.90
10433;DHT22;5263;48.680;9.004;2022-10-16T02:45:32;15.20;99.90
10433;DHT22;5263;48.680;9.004;2022-10-16T02:47:57;15.20;99.90
10433;DHT22;5263;48.680;9.004;2022-10-16T02:50:23;15.20;99.90
10433;DHT22;5263;48.680;9.004;2022-10-16T02:52:52;15.20;99.90
10433;DHT22;5263;48.680;9.004;2022-10-16T02:55:18;15.20;99.90
10433;DHT22;5263;48.680;9.004;2022-10-16T02:57:44;15.10;99.90
10433;DHT22;5263;48.680;9.004;2022-10-16T03:00:12;15.10;99.90
10433;DHT22;5263;48.680;9.004;2022-10-16T03:02:38;15.10;99.90
10433;DHT22;5263;48.680;9.004;2022-10-16T03:05:04;15.00;99.90
10433;DHT22;5263;48.680;9.004;2022-10-16T03:07:30;15.00;99.90
10433;DHT22;5263;48.680;9.004;2022-10-16T03:09:56;15.00;99.90
10433;DHT22;5263;48.680;9.004;2022-10-16T03:12:21;15.00;99.90
10433;DHT22;5263;48.680;9.004;2022-10-16T03:14:47;15.00;99.90
10433;DHT22;5263;48.680;9.004;2022-10-16T03:17:13;15.10;99.90
10433;DHT22;5263;48.680;9.004;2022-10-16T03:19:39;15.10;99.90
10433;DHT22;5263;48.680;9.004;2022-10-16T03:22:04;15.10;99.90
10433;DHT22;5263;48.680;9.004;2022-10-16T03:24:30;15.10;99.90
10433;DHT22;5263;48.680;9.004;2022-10-16T03:26:56;15.10;99.90
10433;DHT22;5263;48.680;9.004;2022-10-16T03:29:21;15.10;99.90
10433;DHT22;5263;48.680;9.004;2022-10-16T03:31:47;15.10;99.90
10433;DHT22;5263;48.680;9.004;2022-10-16T03:34:14;15.20;99.90
10433;DHT22;5263;48.680;9.004;2022-10-16T03:36:40;15.20;99.90
10433;DHT22;5263;48.680;9.004;2022-10-16T03:39:06;15.10;99.90
10433;DHT22;5263;48.680;9.004;2022-10-16T03:41:31;15.10;99.90
10433;DHT22;5263;48.680;9.004;2022-10-16T03:43:57;15.10;99.90
10433;DHT22;5263;48.680;9.004;2022-10-16T03:46:22;15.00;99.90
10433;DHT22;5263;48.680;9.004;2022-10-16T03:48:48;15.00;99.90
10433;DHT22;5263;48.680;9.004;2022-10-16T03:51:13;15.10;99.90
10433;DHT22;5263;48.680;9.004;2022-10-16T03:53:39;15.10;99.90
10433;DHT22;5263;48.680;9.004;2022-10-16T03:56:05;15.10;99.90
10433;DHT22;5263;48.680;9.004;2022-10-16T03:58:31;15.00;99.90
10433;DHT22;5263;48.680;9.004;2022-10-16T04:00:56;14.90;99.90
10433;DHT22;5263;48.680;9.004;2022-10-16T04:03:22;14.90;99.90
10433;DHT22;5263;48.680;9.004;2022-10-16T04:05:48;14.90;99.90
10433;DHT22;5263;48.680;9.004;2022-10-16T04:08:14;14.90;99.90
10433;DHT22;5263;48.680;9.004;2022-10-16T04:10:42;14.70;99.90
10433;DHT22;5263;48.680;9.004;2022-10-16T04:13:08;14.50;99.90
10433;DHT22;5263;48.680;9.004;2022-10-16T04:15:34;14.60;99.90
10433;DHT22;5263;48.680;9.004;2022-10-16T04:18:00;14.50;99.90
10433;DHT22;5263;48.680;9.004;2022-10-16T04:20:25;14.30;99.90
10433;DHT22;5263;48.680;9.004;2022-10-16T04:22:51;14.20;99.90
10433;DHT22;5263;48.680;9.004;2022-10-16T04:25:17;14.40;99.90
10433;DHT22;5263;48.680;9.004;2022-10-16T04:27:42;14.30;99.90
10433;DHT22;5263;48.680;9.004;2022-10-16T04:30:08;14.20;99.90
10433;DHT22;5263;48.680;9.004;2022-10-16T04:32:34;14.20;99.90
10433;DHT22;5263;48.680;9.004;2022-10-16T04:34:59;14.20;99.90
10433;DHT22;5263;48.680;9.004;2022-10-16T04:37:26;14.70;99.90
10433;DHT22;5263;48.680;9.004;2022-10-16T04:39:52;14.50;99.90
10433;DHT22;5263;48.680;9.004;2022-10-16T04:42:18;15.40;99.90
10433;DHT22;5263;48.680;9.004;2022-10-16T04:44:44;14.70;99.90
10433;DHT22;5263;48.680;9.004;2022-10-16T04:47:10;14.70;99.90
10433;DHT22;5263;48.680;9.004;2022-10-16T04:49:35;14.50;99.90
10433;DHT22;5263;48.680;9.004;2022-10-16T04:52:01;14.50;99.90
10433;DHT22;5263;48.680;9.004;2022-10-16T04:54:26;14.60;99.90
10433;DHT22;5263;48.680;9.004;2022-10-16T04:56:52;14.50;99.90
10433;DHT22;5263;48.680;9.004;2022-10-16T04:59:19;14.60;99.90
10433;DHT22;5263;48.680;9.004;2022-10-16T05:01:45;14.50;99.90
10433;DHT22;5263;48.680;9.004;2022-10-16T05:04:11;14.40;99.90
10433;DHT22;5263;48.680;9.004;2022-10-16T05:06:37;14.40;99.90
10433;DHT22;5263;48.680;9.004;2022-10-16T05:09:07;14.40;99.90
10433;DHT22;5263;48.680;9.004;2022-10-16T05:11:33;14.30;99.90
10433;DHT22;5263;48.680;9.004;2022-10-16T05:14:00;14.10;99.90
10433;DHT22;5263;48.680;9.004;2022-10-16T05:16:26;14.20;99.90
10433;DHT22;5263;48.680;9.004;2022-10-16T05:18:52;14.20;99.90
10433;DHT22;5263;48.680;9.004;2022-10-16T05:21:18;14.10;99.90
10433;DHT22;5263;48.680;9.004;2022-10-16T05:23:46;14.10;99.90
10433;DHT22;5263;48.680;9.004;2022-10-16T05:26:11;14.00;99.90
10433;DHT22;5263;48.680;9.004;2022-10-16T05:28:37;14.10;99.90
10433;DHT22;5263;48.680;9.004;2022-10-16T05:31:06;14.00;99.90
10433;DHT22;5263;48.680;9.004;2022-10-16T05:33:32;13.90;99.90
10433;DHT22;5263;48.680;9.004;2022-10-16T05:36:02;13.80;99.90
10433;DHT22;5263;48.680;9.004;2022-10-16T05:38:28;13.90;99.90
10433;DHT22;5263;48.680;9.004;2022-10-16T05:40:54;14.10;99.90
10433;DHT22;5263;48.680;9.004;2022-10-16T05:43:20;13.60;99.90
10433;DHT22;5263;48.680;9.004;2022-10-16T05:46:05;13.70;99.90
10433;DHT22;5263;48.680;9.004;2022-10-16T05:48:31;13.80;99.90
10433;DHT22;5263;48.680;9.004;2022-10-16T05:51:05;13.80;99.90
10433;DHT22;5263;48.680;9.004;2022-10-16T05:53:33;13.80;99.90
10433;DHT22;5263;48.680;9.004;2022-10-16T05:56:00;14.00;99.90
10433;DHT22;5263;48.680;9.004;2022-10-16T05:58:29;14.10;99.90
10433;DHT22;5263;48.680;9.004;2022-10-16T06:01:11;14.10;99.90
10433;DHT22;5263;48.680;9.004;2022-10-16T06:03:37;14.20;99.90
10433;DHT22;5263;48.680;9.004;2022-10-16T06:06:14;14.30;99.90
10433;DHT22;5263;48.680;9.004;2022-10-16T06:08:41;14.30;99.90
10433;DHT22;5263;48.680;9.004;2022-10-16T06:11:09;14.30;99.90
10433;DHT22;5263;48.680;9.004;2022-10-16T06:13:35;14.40;99.90
10433;DHT22;5263;48.680;9.004;2022-10-16T06:16:02;14.30;99.90
10433;DHT22;5263;48.680;9.004;2022-10-16T06:18:28;14.40;99.90
10433;DHT22;5263;48.680;9.004;2022-10-16T06:20:55;14.40;99.90
10433;DHT22;5263;48.680;9.004;2022-10-16T06:23:21;14.60;99.90
10433;DHT22;5263;48.680;9.004;2022-10-16T06:25:46;14.70;99.90
10433;DHT22;5263;48.680;9.004;2022-10-16T06:28:14;14.70;99.90
10433;DHT22;5263;48.680;9.004;2022-10-16T06:30:40;14.60;99.90
10433;DHT22;5263;48.680;9.004;2022-10-16T06:33:05;14.60;99.90
10433;DHT22;5263;48.680;9.004;2022-10-16T06:35:31;14.80;99.90
10433;DHT22;5263;48.680;9.004;2022-10-16T06:37:57;15.00;99.90
10433;DHT22;5263;48.680;9.004;2022-10-16T06:40:23;14.90;99.90
10433;DHT22;5263;48.680;9.004;2022-10-16T06:42:49;15.10;99.90
10433;DHT22;5263;48.680;9.004;2022-10-16T06:45:14;15.20;99.90
10433;DHT22;5263;48.680;9.004;2022-10-16T06:47:40;15.20;99.90
10433;DHT22;5263;48.680;9.004;2022-10-16T06:50:06;15.30;99.90
10433;DHT22;5263;48.680;9.004;2022-10-16T06:52:33;15.30;99.90
10433;DHT22;5263;48.680;9.004;2022-10-16T06:54:59;15.20;99.90
10433;DHT22;5263;48.680;9.004;2022-10-16T06:57:25;15.30;99.90
10433;DHT22;5263;48.680;9.004;2022-10-16T06:59:51;15.40;99.90
10433;DHT22;5263;48.680;9.004;2022-10-16T07:02:16;15.40;99.90
10433;DHT22;5263;48.680;9.004;2022-10-16T07:04:42;15.40;99.90
10433;DHT22;5263;48.680;9.004;2022-10-16T07:07:10;15.60;99.90
10433;DHT22;5263;48.680;9.004;2022-10-16T07:09:39;15.80;99.90
10433;DHT22;5263;48.680;9.004;2022-10-16T07:12:05;15.90;99.90
10433;DHT22;5263;48.680;9.004;2022-10-16T07:14:30;15.80;99.90
10433;DHT22;5263;48.680;9.004;2022-10-16T07:16:56;15.90;99.90
10433;DHT22;5263;48.680;9.004;2022-10-16T07:19:22;15.70;99.90
10433;DHT22;5263;48.680;9.004;2022-10-16T07:21:47;15.90;99.90
10433;DHT22;5263;48.680;9.004;2022-10-16T07:24:15;15.90;99.90
10433;DHT22;5263;48.680;9.004;2022-10-16T07:26:41;15.90;99.90
10433;DHT22;5263;48.680;9.004;2022-10-16T07:29:12;16.00;99.90
10433;DHT22;5263;48.680;9.004;2022-10-16T07:31:39;16.00;99.90
10433;DHT22;5263;48.680;9.004;2022-10-16T07:34:05;15.80;99.90
10433;DHT22;5263;48.680;9.004;2022-10-16T07:36:31;15.90;99.90
10433;DHT22;5263;48.680;9.004;2022-10-16T07:38:56;16.00;99.90
10433;DHT22;5263;48.680;9.004;2022-10-16T07:41:22;16.20;99.90
10433;DHT22;5263;48.680;9.004;2022-10-16T07:43:49;16.30;99.90
10433;DHT22;5263;48.680;9.004;2022-10-16T07:46:16;16.40;99.90
10433;DHT22;5263;48.680;9.004;2022-10-16T07:48:43;16.60;99.90
10433;DHT22;5263;48.680;9.004;2022-10-16T07:51:13;16.40;99.90
10433;DHT22;5263;48.680;9.004;2022-10-16T07:53:39;16.40;99.90
10433;DHT22;5263;48.680;9.004;2022-10-16T07:56:06;16.40;99.90
10433;DHT22;5263;48.680;9.004;2022-10-16T07:58:33;16.20;99.90
10433;DHT22;5263;48.680;9.004;2022-10-16T08:01:06;16.60;99.90
10433;DHT22;5263;48.680;9.004;2022-10-16T08:03:32;16.60;99.90
10433;DHT22;5263;48.680;9.004;2022-10-16T08:05:59;16.60;99.90
10433;DHT22;5263;48.680;9.004;2022-10-16T08:08:25;16.60;99.90
10433;DHT22;5263;48.680;9.004;2022-10-16T08:10:51;16.80;99.90
10433;DHT22;5263;48.680;9.004;2022-10-16T08:13:16;16.80;99.90
10433;DHT22;5263;48.680;9.004;2022-10-16T08:15:43;16.90;99.90
10433;DHT22;5263;48.680;9.004;2022-10-16T08:18:11;17.00;99.90
10433;DHT22;5263;48.680;9.004;2022-10-16T08:23:13;17.30;99.90
10433;DHT22;5263;48.680;9.004;2022-10-16T08:25:39;17.40;99.90
10433;DHT22;5263;48.680;9.004;2022-10-16T08:28:10;17.40;99.90
10433;DHT22;5263;48.680;9.004;2022-10-16T08:30:35;17.50;99.90
10433;DHT22;5263;48.680;9.004;2022-10-16T08:33:01;17.50;99.90
10433;DHT22;5263;48.680;9.004;2022-10-16T08:35:27;17.40;99.90
10433;DHT22;5263;48.680;9.004;2022-10-16T08:37:53;17.40;99.90
10433;DHT22;5263;48.680;9.004;2022-10-16T08:40:27;17.10;99.90
10433;DHT22;5263;48.680;9.004;2022-10-16T08:50:49;17.10;99.90
10433;DHT22;5263;48.680;9.004;2022-10-16T08:53:27;17.30;99.90
10433;DHT22;5263;48.680;9.004;2022-10-16T08:55:54;17.40;99.90
10433;DHT22;5263;48.680;9.004;2022-10-16T08:58:27;17.50;99.90
10433;DHT22;5263;48.680;9.004;2022-10-16T09:01:01;17.70;99.90
10433;DHT22;5263;48.680;9.004;2022-10-16T09:17:49;18.60;99.90
10433;DHT22;5263;48.680;9.004;2022-10-16T09:23:18;19.70;99.90
10433;DHT22;5263;48.680;9.004;2022-10-16T09:25:49;19.70;99.90
10433;DHT22;5263;48.680;9.004;2022-10-16T09:28:16;19.90;99.90
10433;DHT22;5263;48.680;9.004;2022-10-16T09:30:42;20.00;99.90
10433;DHT22;5263;48.680;9.004;2022-10-16T09:33:10;20.00;99.90
10433;DHT22;5263;48.680;9.004;2022-10-16T09:35:49;19.40;99.90
10433;DHT22;5263;48.680;9.004;2022-10-16T09:38:32;19.50;99.90
10433;DHT22;5263;48.680;9.004;2022-10-16T09:41:18;19.60;99.90
10433;DHT22;5263;48.680;9.004;2022-10-16T09:43:59;19.70;99.90
10433;DHT22;5263;48.680;9.004;2022-10-16T09:46:29;19.90;99.90
10433;DHT22;5263;48.680;9.004;2022-10-16T09:49:00;20.10;99.90
10433;DHT22;5263;48.680;9.004;2022-10-16T09:51:27;20.30;99.90
10433;DHT22;5263;48.680;9.004;2022-10-16T09:56:32;20.80;99.90
10433;DHT22;5263;48.680;9.004;2022-10-16T09:59:08;21.30;99.90
10433;DHT22;5263;48.680;9.004;2022-10-16T10:01:52;21.20;99.90
10433;DHT22;5263;48.680;9.004;2022-10-16T10:04:19;23.10;99.90
10433;DHT22;5263;48.680;9.004;2022-10-16T10:06:54;25.10;99.90
10433;DHT22;5263;48.680;9.004;2022-10-16T10:14:32;29.70;99.90
10433;DHT22;5263;48.680;9.004;2022-10-16T10:19:45;29.50;94.60
10433;DHT22;5263;48.680;9.004;2022-10-16T10:35:34;22.70;99.90
10433;DHT22;5263;48.680;9.004;2022-10-16T10:38:39;22.40;99.90
10433;DHT22;5263;48.680;9.004;2022-10-16T10:57:39;25.60;99.90
10433;DHT22;5263;48.680;9.004;2022-10-16T11:00:21;26.80;99.90
10433;DHT22;5263;48.680;9.004;2022-10-16T11:03:16;26.60;99.90
10433;DHT22;5263;48.680;9.004;2022-10-16T11:05:45;27.70;99.90
10433;DHT22;5263;48.680;9.004;2022-10-16T11:08:41;28.60;96.60
10433;DHT22;5263;48.680;9.004;2022-10-16T11:13:39;27.10;97.60
10433;DHT22;5263;48.680;9.004;2022-10-16T11:18:55;26.50;99.50
10433;DHT22;5263;48.680;9.004;2022-10-16T11:21:24;26.10;99.90
10433;DHT22;5263;48.680;9.004;2022-10-16T11:24:01;26.60;99.90
10433;DHT22;5263;48.680;9.004;2022-10-16T11:26:34;26.60;98.40
10433;DHT22;5263;48.680;9.004;2022-10-16T11:29:02;25.40;99.70
10433;DHT22;5263;48.680;9.004;2022-10-16T11:31:38;25.50;99.30
10433;DHT22;5263;48.680;9.004;2022-10-16T11:34:28;25.90;99.10
10433;DHT22;5263;48.680;9.004;2022-10-16T11:36:58;26.50;99.30
10433;DHT22;5263;48.680;9.004;2022-10-16T11:39:31;26.60;99.40
10433;DHT22;5263;48.680;9.004;2022-10-16T11:49:46;31.20;89.10
10433;DHT22;5263;48.680;9.004;2022-10-16T11:52:38;32.50;84.40
10433;DHT22;5263;48.680;9.004;2022-10-16T11:55:18;32.90;78.70
10433;DHT22;5263;48.680;9.004;2022-10-16T11:57:51;33.10;77.40
10433;DHT22;5263;48.680;9.004;2022-10-16T12:08:15;32.90;71.50
10433;DHT22;5263;48.680;9.004;2022-10-16T12:10:44;33.00;66.50
10433;DHT22;5263;48.680;9.004;2022-10-16T12:13:39;31.10;72.20
10433;DHT22;5263;48.680;9.004;2022-10-16T12:18:44;30.50;74.60
10433;DHT22;5263;48.680;9.004;2022-10-16T12:21:12;31.80;70.40
10433;DHT22;5263;48.680;9.004;2022-10-16T12:23:52;30.80;71.80
10433;DHT22;5263;48.680;9.004;2022-10-16T12:26:33;29.80;73.60
10433;DHT22;5263;48.680;9.004;2022-10-16T12:31:57;30.40;71.40
10433;DHT22;5263;48.680;9.004;2022-10-16T12:34:28;30.00;70.80
10433;DHT22;5263;48.680;9.004;2022-10-16T12:36:55;29.00;73.40
10433;DHT22;5263;48.680;9.004;2022-10-16T12:39:24;31.30;69.00
10433;DHT22;5263;48.680;9.004;2022-10-16T12:42:04;30.40;68.50
10433;DHT22;5263;48.680;9.004;2022-10-16T12:44:36;28.80;72.80
10433;DHT22;5263;48.680;9.004;2022-10-16T12:47:02;26.90;78.90
10433;DHT22;5263;48.680;9.004;2022-10-16T12:51:54;26.10;85.20
10433;DHT22;5263;48.680;9.004;2022-10-16T12:54:35;25.30;87.20
10433;DHT22;5263;48.680;9.004;2022-10-16T13:00:19;24.20;90.70
10433;DHT22;5263;48.680;9.004;2022-10-16T13:24:53;25.40;93.30
10433;DHT22;5263;48.680;9.004;2022-10-16T13:30:29;26.50;92.80
10433;DHT22;5263;48.680;9.004;2022-10-16T13:33:13;27.00;90.20
10433;DHT22;5263;48.680;9.004;2022-10-16T13:35:52;27.50;88.00
10433;DHT22;5263;48.680;9.004;2022-10-16T13:38:20;26.50;91.50
10433;DHT22;5263;48.680;9.004;2022-10-16T13:40:58;26.70;91.20
10433;DHT22;5263;48.680;9.004;2022-10-16T13:46:17;25.70;92.80
10433;DHT22;5263;48.680;9.004;2022-10-16T13:48:44;25.70;93.10
10433;DHT22;5263;48.680;9.004;2022-10-16T13:51:15;25.80;92.80
10433;DHT22;5263;48.680;9.004;2022-10-16T13:53:42;26.00;93.40
10433;DHT22;5263;48.680;9.004;2022-10-16T13:56:18;25.70;93.90
10433;DHT22;5263;48.680;9.004;2022-10-16T13:58:45;25.60;95.30
10433;DHT22;5263;48.680;9.004;2022-10-16T14:01:20;25.50;95.00
10433;DHT22;5263;48.680;9.004;2022-10-16T14:03:49;25.00;96.00
10433;DHT22;5263;48.680;9.004;2022-10-16T14:06:18;24.80;94.50
10433;DHT22;5263;48.680;9.004;2022-10-16T14:08:59;24.30;96.30
10433;DHT22;5263;48.680;9.004;2022-10-16T14:11:26;24.20;97.50
10433;DHT22;5263;48.680;9.004;2022-10-16T14:13:52;24.70;96.90
10433;DHT22;5263;48.680;9.004;2022-10-16T14:16:23;24.90;94.70
10433;DHT22;5263;48.680;9.004;2022-10-16T14:19:01;24.10;96.80
10433;DHT22;5263;48.680;9.004;2022-10-16T14:21:28;23.50;96.70
10433;DHT22;5263;48.680;9.004;2022-10-16T14:26:27;23.30;98.60
10433;DHT22;5263;48.680;9.004;2022-10-16T14:29:15;24.00;99.20
10433;DHT22;5263;48.680;9.004;2022-10-16T14:31:41;24.20;99.80
10433;DHT22;5263;48.680;9.004;2022-10-16T14:34:32;24.60;98.70
10433;DHT22;5263;48.680;9.004;2022-10-16T14:37:25;24.90;97.80
10433;DHT22;5263;48.680;9.004;2022-10-16T14:39:53;24.70;97.40
10433;DHT22;5263;48.680;9.004;2022-10-16T14:42:20;24.10;97.40
10433;DHT22;5263;48.680;9.004;2022-10-16T14:44:50;24.40;97.80
10433;DHT22;5263;48.680;9.004;2022-10-16T14:47:21;24.40;98.30
10433;DHT22;5263;48.680;9.004;2022-10-16T14:49:50;23.70;98.80
10433;DHT22;5263;48.680;9.004;2022-10-16T14:52:16;24.00;99.30
10433;DHT22;5263;48.680;9.004;2022-10-16T14:54:41;23.60;98.60
10433;DHT22;5263;48.680;9.004;2022-10-16T14:57:18;23.60;99.80
10433;DHT22;5263;48.680;9.004;2022-10-16T14:59:45;23.50;99.70
10433;DHT22;5263;48.680;9.004;2022-10-16T15:04:46;23.00;99.90
10433;DHT22;5263;48.680;9.004;2022-10-16T15:07:12;23.30;99.90
10433;DHT22;5263;48.680;9.004;2022-10-16T15:09:38;23.10;99.90
10433;DHT22;5263;48.680;9.004;2022-10-16T15:12:03;22.80;99.90
10433;DHT22;5263;48.680;9.004;2022-10-16T15:14:29;22.80;99.90
10433;DHT22;5263;48.680;9.004;2022-10-16T15:16:54;23.10;99.90
10433;DHT22;5263;48.680;9.004;2022-10-16T15:19:20;22.80;99.90
10433;DHT22;5263;48.680;9.004;2022-10-16T15:21:46;23.10;99.90
10433;DHT22;5263;48.680;9.004;2022-10-16T15:24:13;23.30;99.90
10433;DHT22;5263;48.680;9.004;2022-10-16T15:26:39;23.50;99.90
10433;DHT22;5263;48.680;9.004;2022-10-16T15:29:05;23.50;99.90
10433;DHT22;5263;48.680;9.004;2022-10-16T15:31:31;23.70;99.90
10433;DHT22;5263;48.680;9.004;2022-10-16T15:33:56;23.30;99.90
10433;DHT22;5263;48.680;9.004;2022-10-16T15:36:34;23.10;99.90
10433;DHT22;5263;48.680;9.004;2022-10-16T15:39:05;23.00;99.90
10433;DHT22;5263;48.680;9.004;2022-10-16T15:41:31;22.70;99.90
10433;DHT22;5263;48.680;9.004;2022-10-16T15:43:57;22.60;99.90
10433;DHT22;5263;48.680;9.004;2022-10-16T15:46:23;22.50;99.90
10433;DHT22;5263;48.680;9.004;2022-10-16T15:48:51;22.40;99.90
10433;DHT22;5263;48.680;9.004;2022-10-16T15:51:20;22.30;99.90
10433;DHT22;5263;48.680;9.004;2022-10-16T15:53:46;22.20;99.90
10433;DHT22;5263;48.680;9.004;2022-10-16T15:56:12;21.90;99.90
10433;DHT22;5263;48.680;9.004;2022-10-16T15:58:38;21.80;99.90
10433;DHT22;5263;48.680;9.004;2022-10-16T16:01:05;21.50;99.90
10433;DHT22;5263;48.680;9.004;2022-10-16T16:03:32;21.50;99.90
10433;DHT22;5263;48.680;9.004;2022-10-16T16:06:03;21.20;99.90
10433;DHT22;5263;48.680;9.004;2022-10-16T16:08:28;21.00;99.90
10433;DHT22;5263;48.680;9.004;2022-10-16T16:11:01;20.90;99.90
10433;DHT22;5263;48.680;9.004;2022-10-16T16:13:27;20.80;99.90
10433;DHT22;5263;48.680;9.004;2022-10-16T16:15:53;20.80;99.90
10433;DHT22;5263;48.680;9.004;2022-10-16T16:18:18;20.60;99.90
10433;DHT22;5263;48.680;9.004;2022-10-16T16:20:44;20.60;99.90
10433;DHT22;5263;48.680;9.004;2022-10-16T16:23:09;20.50;99.90
10433;DHT22;5263;48.680;9.004;2022-10-16T16:25:35;20.50;99.90
10433;DHT22;5263;48.680;9.004;2022-10-16T16:28:01;20.50;99.90
10433;DHT22;5263;48.680;9.004;2022-10-16T16:30:27;20.40;99.90
10433;DHT22;5263;48.680;9.004;2022-10-16T16:32:52;20.20;99.90
10433;DHT22;5263;48.680;9.004;2022-10-16T16:35:18;20.20;99.90
10433;DHT22;5263;48.680;9.004;2022-10-16T16:37:43;20.10;99.90
10433;DHT22;5263;48.680;9.004;2022-10-16T16:40:09;20.00;99.90
10433;DHT22;5263;48.680;9.004;2022-10-16T16:42:35;19.90;99.90
10433;DHT22;5263;48.680;9.004;2022-10-16T16:45:00;19.80;99.90
10433;DHT22;5263;48.680;9.004;2022-10-16T16:47:26;19.60;99.90
10433;DHT22;5263;48.680;9.004;2022-10-16T16:49:51;19.50;99.90
10433;DHT22;5263;48.680;9.004;2022-10-16T16:52:17;19.40;99.90
10433;DHT22;5263;48.680;9.004;2022-10-16T16:54:43;19.30;99.90
10433;DHT22;5263;48.680;9.004;2022-10-16T16:57:10;19.30;99.90
10433;DHT22;5263;48.680;9.004;2022-10-16T16:59:36;19.10;99.90
10433;DHT22;5263;48.680;9.004;2022-10-16T17:02:02;19.00;99.90
10433;DHT22;5263;48.680;9.004;2022-10-16T17:04:28;18.80;99.90
10433;DHT22;5263;48.680;9.004;2022-10-16T17:06:54;18.70;99.90
10433;DHT22;5263;48.680;9.004;2022-10-16T17:09:21;18.50;99.90
10433;DHT22;5263;48.680;9.004;2022-10-16T17:11:46;18.30;99.90
10433;DHT22;5263;48.680;9.004;2022-10-16T17:14:13;18.00;99.90
10433;DHT22;5263;48.680;9.004;2022-10-16T17:16:39;18.10;99.90
10433;DHT22;5263;48.680;9.004;2022-10-16T17:19:14;18.10;99.90
10433;DHT22;5263;48.680;9.004;2022-10-16T17:21:40;18.20;99.90
10433;DHT22;5263;48.680;9.004;2022-10-16T17:24:06;18.10;99.90
10433;DHT22;5263;48.680;9.004;2022-10-16T17:26:32;18.00;99.90
10433;DHT22;5263;48.680;9.004;2022-10-16T17:29:00;17.80;99.90
10433;DHT22;5263;48.680;9.004;2022-10-16T17:31:33;17.80;99.90
10433;DHT22;5263;48.680;9.004;2022-10-16T17:34:01;17.70;99.90
10433;DHT22;5263;48.680;9.004;2022-10-16T17:36:35;17.70;99.90
10433;DHT22;5263;48.680;9.004;2022-10-16T17:39:11;17.60;99.90
10433;DHT22;5263;48.680;9.004;2022-10-16T17:41:37;17.30;99.90
10433;DHT22;5263;48.680;9.004;2022-10-16T17:44:04;17.30;99.90
10433;DHT22;5263;48.680;9.004;2022-10-16T17:46:30;17.40;99.90
10433;DHT22;5263;48.680;9.004;2022-10-16T17:48:56;17.30;99.90
10433;DHT22;5263;48.680;9.004;2022-10-16T17:51:26;16.80;99.90
10433;DHT22;5263;48.680;9.004;2022-10-16T17:53:54;16.70;99.90
10433;DHT22;5263;48.680;9.004;2022-10-16T17:56:24;16.60;99.90
10433;DHT22;5263;48.680;9.004;2022-10-16T17:58:51;17.00;99.90
10433;DHT22;5263;48.680;9.004;2022-10-16T18:01:19;17.10;99.90
10433;DHT22;5263;48.680;9.004;2022-10-16T18:03:56;17.20;99.90
10433;DHT22;5263;48.680;9.004;2022-10-16T18:06:23;17.20;99.90
10433;DHT22;5263;48.680;9.004;2022-10-16T18:08:53;17.20;99.90
10433;DHT22;5263;48.680;9.004;2022-10-16T18:11:20;17.20;99.90
10433;DHT22;5263;48.680;9.004;2022-10-16T18:13:46;17.20;99.90
10433;DHT22;5263;48.680;9.004;2022-10-16T18:16:13;17.20;99.90
10433;DHT22;5263;48.680;9.004;2022-10-16T18:18:40;17.20;99.90
10433;DHT22;5263;48.680;9.004;2022-10-16T18:21:08;17.20;99.90
10433;DHT22;5263;48.680;9.004;2022-10-16T18:23:36;17.20;99.90
10433;DHT22;5263;48.680;9.004;2022-10-16T18:26:03;17.20;99.90
10433;DHT22;5263;48.680;9.004;2022-10-16T18:28:29;17.20;99.90